EHAMLGKO

Guest
Details From EHAM - Schiphol
To LGKO - KOS
Flight Number -
Tags decoded
Created
Modified
Stats Distance 1,325 nm / 2,453 km
Max Altitude 0 ft / 0 m
Waypoints 2
Social Downloads 4
Likes 0
Share VATSIM

Download

Looking for another format? Having issues loading an existing format? Contact us
Advertisement - Login to hide

Notes

Requested: EHAM LGKO

Route

EHAM LGKO

ID Type Via Altitude Latitude Longitude Leg Dist Tot Dist Heading (true) Name
O EHAM APT - 0 ft / 0 m 52.31485˚ 4.75812˚ - 0 nm - Schiphol
O LGKO APT - 0 ft / 0 m 36.79440˚ 27.09076˚ 1324 nm 1324 nm 126° / 142° KOS

Altitude Profile

Advertisement - Login to hide

Weather


0- 5 10 15 20 25 30 35+ Temperature / ° C

Clouds and Precipitation
Forecast for 2018-05-28 00:00 UTC. Updated 40 minutes ago

Ground ~20,000 ft ~40,000 ft Winds

EHAM

Details ICAO EHAM (AMS)
Name Schiphol
Region Netherlands
Timezone Europe/Amsterdam (UTC+2.0)
Stats Elevation -11 ft / -3 m (AMSL)
Location 52.314850° 4.758121°
Runways 6
Magnetic Variation 1.195° E

METAR

EHAM 272355Z 08004KT CAVOK 19/16 Q1017 NOSIG

Decode

TAF

TAF EHAM 272240Z 2800/2906 10005KT CAVOK BECMG 2814/2817 03010KT

Decode

Departure Runways

ID Width Length Bearing (true) Bearing (mag) Surface Threshold Offset Overrun Length
04 148 ft / 45 m 6,620 ft / 2,018 m 41.18° 39.99° Asphalt 0 ft / 0 m 0 ft / 0 m
06 161 ft / 49 m 11,439 ft / 3,487 m 57.80° 56.61° Asphalt 820 ft / 250 m 0 ft / 0 m
09 164 ft / 50 m 11,310 ft / 3,447 m 86.77° 85.58° Asphalt 384 ft / 117 m 0 ft / 0 m
18C 161 ft / 49 m 10,842 ft / 3,305 m 183.20° 182.01° Asphalt 0 ft / 0 m 0 ft / 0 m
18L 164 ft / 50 m 11,146 ft / 3,397 m 183.17° 181.98° Asphalt 1,857 ft / 566 m 0 ft / 0 m
18R 184 ft / 56 m 12,497 ft / 3,809 m 183.16° 181.97° Asphalt 886 ft / 270 m 0 ft / 0 m
22 148 ft / 45 m 6,620 ft / 2,018 m 221.20° 220.01° Asphalt 0 ft / 0 m 915 ft / 279 m
24 161 ft / 49 m 11,439 ft / 3,487 m 237.83° 236.64° Asphalt 0 ft / 0 m 0 ft / 0 m
27 164 ft / 50 m 11,310 ft / 3,447 m 266.81° 265.62° Asphalt 0 ft / 0 m 0 ft / 0 m
36C 161 ft / 49 m 10,842 ft / 3,305 m 3.20° 2.01° Asphalt 1,476 ft / 450 m 0 ft / 0 m
36L 184 ft / 56 m 12,497 ft / 3,809 m 3.16° 1.97° Asphalt 0 ft / 0 m 0 ft / 0 m
36R 164 ft / 50 m 11,146 ft / 3,397 m 3.17° 1.98° Asphalt 0 ft / 0 m 0 ft / 0 m

LGKO

Details ICAO LGKO (KGS)
Name KOS
Region Greece
Timezone Europe/Athens (UTC+3.0)
Stats Elevation 412 ft / 126 m (AMSL)
Location 36.794403° 27.090764°
Runways 1
Magnetic Variation 4.766° E

METAR

LGKO 272350Z 35004KT 9999 FEW018 20/16 Q1011

Decode

TAF

TAF LGKO 272300Z 2800/2824 34012KT 9999 FEW018 TEMPO 2812/2816 34012G22KT

Decode

Destination Runways

ID Width Length Bearing (true) Bearing (mag) Surface Threshold Offset Overrun Length
14 148 ft / 45 m 7,923 ft / 2,415 m 148.29° 143.52° Asphalt 0 ft / 0 m 240 ft / 73 m
32 148 ft / 45 m 7,923 ft / 2,415 m 328.30° 323.53° Asphalt 0 ft / 0 m 205 ft / 62 m

Popular Alternatives